createdAt,value
2019-03-28T00:00:36.631Z,17.23
2019-03-28T00:03:06.795Z,18.48
2019-03-28T00:05:37.071Z,17.67
2019-03-28T00:08:07.327Z,16.62
2019-03-28T00:10:37.504Z,17.00
2019-03-28T00:13:07.693Z,16.60
2019-03-28T00:15:39.478Z,18.10
2019-03-28T00:18:09.673Z,16.97
2019-03-28T00:20:39.853Z,18.10
2019-03-28T00:23:29.781Z,18.52
2019-03-28T00:26:00.216Z,18.02
2019-03-28T00:28:30.451Z,19.27
2019-03-28T00:31:00.763Z,17.92
2019-03-28T00:33:30.967Z,17.95
2019-03-28T00:36:01.159Z,18.45
2019-03-28T00:38:31.591Z,18.82
2019-03-28T00:41:01.979Z,18.40
2019-03-28T00:43:32.171Z,17.95
2019-03-28T00:46:02.452Z,18.17
2019-03-28T00:48:32.647Z,16.57
2019-03-28T00:51:02.876Z,17.05
2019-03-28T00:53:33.156Z,18.35
2019-03-28T00:56:03.456Z,17.23
2019-03-28T00:58:34.189Z,17.20
2019-03-28T01:01:05.127Z,17.82
2019-03-28T01:03:36.352Z,16.60
2019-03-28T01:06:07.335Z,17.05
2019-03-28T01:08:37.931Z,17.87
2019-03-28T01:11:08.312Z,18.02
2019-03-28T01:13:38.509Z,18.48
2019-03-28T01:16:08.788Z,16.77
2019-03-28T01:18:39.105Z,18.20
2019-03-28T01:21:09.092Z,17.65
2019-03-28T01:23:39.107Z,17.05
2019-03-28T01:26:09.099Z,17.42
2019-03-28T01:28:39.919Z,16.62
2019-03-28T01:31:10.344Z,17.30
2019-03-28T01:33:40.600Z,18.67
2019-03-28T01:36:13.111Z,18.00
2019-03-28T01:38:43.213Z,17.90
2019-03-28T01:41:13.196Z,18.37
2019-03-28T01:43:43.192Z,18.32
2019-03-28T01:46:13.196Z,19.90
2019-03-28T01:48:43.179Z,19.67
2019-03-28T01:51:13.270Z,18.95
2019-03-28T01:53:43.264Z,18.73
2019-03-28T01:56:13.283Z,18.60
2019-03-28T01:58:43.252Z,18.27
2019-03-28T02:01:13.268Z,18.62
2019-03-28T02:03:43.339Z,18.73
2019-03-28T02:06:13.324Z,18.70
2019-03-28T02:08:43.327Z,19.17
2019-03-28T02:11:13.307Z,18.87
2019-03-28T02:13:43.358Z,18.85
2019-03-28T02:16:13.587Z,19.05
2019-03-28T02:18:45.369Z,18.02
2019-03-28T02:21:15.488Z,19.75
2019-03-28T02:23:45.711Z,18.60
2019-03-28T02:26:15.928Z,18.77
2019-03-28T02:28:45.896Z,17.82
2019-03-28T02:31:17.546Z,18.87
2019-03-28T02:33:47.608Z,18.37
2019-03-28T02:36:17.681Z,17.85
2019-03-28T02:38:47.887Z,18.80
2019-03-28T02:41:18.191Z,19.17
2019-03-28T02:43:48.483Z,17.80
2019-03-28T02:46:18.860Z,17.75
2019-03-28T02:48:49.144Z,17.92
2019-03-28T02:51:19.403Z,19.10
2019-03-28T02:53:49.797Z,17.75
2019-03-28T02:56:19.976Z,17.90
2019-03-28T02:58:50.201Z,17.12
2019-03-28T03:01:20.505Z,18.62
2019-03-28T03:03:52.268Z,17.62
2019-03-28T03:06:22.481Z,18.17
2019-03-28T03:08:52.701Z,18.50
2019-03-28T03:11:22.922Z,19.00
2019-03-28T03:13:53.122Z,18.07
2019-03-28T03:16:23.329Z,18.62
2019-03-28T03:18:53.549Z,19.60
2019-03-28T03:21:25.372Z,19.10
2019-03-28T03:23:55.587Z,18.65
2019-03-28T03:26:26.543Z,19.55
2019-03-28T03:28:56.751Z,20.02
2019-03-28T03:31:27.004Z,18.92
2019-03-28T03:33:57.314Z,20.08
2019-03-28T03:36:27.661Z,19.45
2019-03-28T03:38:57.879Z,19.27
2019-03-28T03:41:29.698Z,19.17
2019-03-28T03:43:59.919Z,21.45
2019-03-28T03:46:30.109Z,21.12
2019-03-28T03:49:00.307Z,20.75
2019-03-28T03:51:31.167Z,21.37
2019-03-28T03:54:01.450Z,21.82
2019-03-28T03:56:31.816Z,21.33
2019-03-28T03:59:02.008Z,21.35
2019-03-28T04:01:32.219Z,20.50
2019-03-28T04:04:02.493Z,21.07
2019-03-28T04:06:32.674Z,22.48
2019-03-28T04:09:02.933Z,20.52
2019-03-28T04:11:33.296Z,20.65
2019-03-28T04:14:04.481Z,21.52
2019-03-28T04:16:36.241Z,21.33
2019-03-28T04:19:06.429Z,20.80
2019-03-28T04:21:36.691Z,20.95
2019-03-28T04:24:06.920Z,21.45
2019-03-28T04:26:37.097Z,22.75
2019-03-28T04:29:07.279Z,24.37
2019-03-28T04:31:37.504Z,22.95
2019-03-28T04:34:09.386Z,22.87
2019-03-28T04:36:40.832Z,22.65
2019-03-28T04:39:11.416Z,22.40
2019-03-28T04:41:41.605Z,23.45
2019-03-28T04:44:11.792Z,23.77
2019-03-28T04:46:42.120Z,23.18
2019-03-28T04:49:14.414Z,26.00
2019-03-28T04:51:45.772Z,23.87
2019-03-28T04:54:15.984Z,24.75
2019-03-28T04:56:46.174Z,25.40
2019-03-28T04:59:16.376Z,25.35
2019-03-28T05:02:00.967Z,23.25
2019-03-28T05:04:21.220Z,23.05
2019-03-28T05:06:53.155Z,24.02
2019-03-28T05:09:23.355Z,22.85
2019-03-28T05:11:53.559Z,25.25
2019-03-28T05:14:23.747Z,23.42
2019-03-28T05:16:55.615Z,23.15
2019-03-28T05:19:25.881Z,24.98
2019-03-28T05:21:56.471Z,24.82
2019-03-28T05:24:27.094Z,26.52
2019-03-28T05:26:57.325Z,25.50
2019-03-28T05:29:27.541Z,27.45
2019-03-28T05:31:57.727Z,27.32
2019-03-28T05:34:27.943Z,26.87
2019-03-28T05:36:58.116Z,25.95
2019-03-28T05:39:28.330Z,26.02
2019-03-28T05:41:58.622Z,26.50
2019-03-28T05:44:28.814Z,27.98
2019-03-28T05:46:59.035Z,29.02
2019-03-28T05:49:29.341Z,27.67
2019-03-28T05:51:59.582Z,27.80
2019-03-28T05:54:31.391Z,26.68
2019-03-28T05:57:01.589Z,28.70
2019-03-28T05:59:31.828Z,26.70
2019-03-28T06:02:02.017Z,27.07
2019-03-28T06:04:32.233Z,28.95
2019-03-28T06:07:02.448Z,27.00
2019-03-28T06:09:32.669Z,25.65
2019-03-28T06:12:02.899Z,28.25
2019-03-28T06:14:33.080Z,26.68
2019-03-28T06:17:03.371Z,27.70
2019-03-28T06:19:33.729Z,27.80
2019-03-28T06:22:03.984Z,28.23
2019-03-28T06:24:34.282Z,26.87
2019-03-28T06:27:04.617Z,27.22
2019-03-28T06:29:34.954Z,25.45
2019-03-28T06:32:05.213Z,25.40
2019-03-28T06:34:35.529Z,26.57
2019-03-28T06:37:06.424Z,26.68
2019-03-28T06:39:36.943Z,26.37
2019-03-28T06:42:07.166Z,29.45
2019-03-28T06:44:37.348Z,29.00
2019-03-28T06:47:07.556Z,28.27
2019-03-28T06:49:37.778Z,26.70
2019-03-28T06:52:08.458Z,28.30
2019-03-28T06:54:38.781Z,28.87
2019-03-28T06:57:08.979Z,28.20
2019-03-28T06:59:40.781Z,27.95
2019-03-28T07:02:10.969Z,29.00
2019-03-28T07:04:41.200Z,29.50
2019-03-28T07:07:11.500Z,27.35
2019-03-28T07:09:41.727Z,26.00
2019-03-28T07:12:11.953Z,28.80
2019-03-28T07:14:42.180Z,28.00
2019-03-28T07:17:12.402Z,28.62
2019-03-28T07:19:42.591Z,27.75
2019-03-28T07:22:12.832Z,27.95
2019-03-28T07:24:43.031Z,28.27
2019-03-28T07:27:13.320Z,25.95
2019-03-28T07:29:50.716Z,26.85
2019-03-28T07:32:15.429Z,26.65
2019-03-28T07:34:45.626Z,24.92
2019-03-28T07:37:15.866Z,27.82
2019-03-28T07:39:46.123Z,25.43
2019-03-28T07:42:16.359Z,26.40
2019-03-28T07:44:49.041Z,26.35
2019-03-28T07:47:19.355Z,27.13
2019-03-28T07:49:49.561Z,26.35
2019-03-28T07:52:20.182Z,25.40
2019-03-28T07:54:50.558Z,26.33
2019-03-28T07:57:20.778Z,26.05
2019-03-28T08:00:03.618Z,27.27
2019-03-28T08:02:23.012Z,25.90
2019-03-28T08:04:53.237Z,25.92
2019-03-28T08:07:23.439Z,25.75
2019-03-28T08:09:53.728Z,25.32
2019-03-28T08:12:23.983Z,24.87
2019-03-28T08:14:54.561Z,27.37
2019-03-28T08:17:24.781Z,25.88
2019-03-28T08:19:55.035Z,26.75
2019-03-28T08:22:25.215Z,26.68
2019-03-28T08:24:55.446Z,26.12
2019-03-28T08:27:25.733Z,25.08
2019-03-28T08:29:57.966Z,24.95
2019-03-28T08:32:28.950Z,25.35
2019-03-28T08:35:00.771Z,24.55
2019-03-28T08:37:31.417Z,23.45
2019-03-28T08:40:01.778Z,24.43
2019-03-28T08:42:31.997Z,23.45
2019-03-28T08:45:02.205Z,24.15
2019-03-28T08:47:32.416Z,26.65
2019-03-28T08:50:02.653Z,25.50
2019-03-28T08:52:32.845Z,24.35
2019-03-28T08:55:03.476Z,25.55
2019-03-28T08:57:33.668Z,24.45
2019-03-28T09:00:07.240Z,24.67
2019-03-28T09:02:37.485Z,24.45
2019-03-28T09:05:07.696Z,23.87
2019-03-28T09:07:37.917Z,22.30
2019-03-28T09:10:10.303Z,24.15
2019-03-28T09:12:40.552Z,29.27
2019-03-28T09:15:10.840Z,23.92
2019-03-28T09:17:41.074Z,22.70
2019-03-28T09:20:11.288Z,24.20
2019-03-28T09:22:41.588Z,22.58
2019-03-28T09:25:12.505Z,22.95
2019-03-28T09:27:42.796Z,21.65
2019-03-28T09:30:13.032Z,23.70
2019-03-28T09:32:43.265Z,22.32
2019-03-28T09:35:16.638Z,21.25
2019-03-28T09:37:48.467Z,22.20
2019-03-28T09:40:18.745Z,20.62
2019-03-28T09:42:49.102Z,20.85
2019-03-28T09:45:19.337Z,20.00
2019-03-28T09:47:51.097Z,18.90
2019-03-28T09:50:21.337Z,18.07
2019-03-28T09:52:51.512Z,17.57
2019-03-28T09:55:21.722Z,17.45
2019-03-28T09:57:53.555Z,16.15
2019-03-28T10:00:26.915Z,14.35
2019-03-28T10:02:57.273Z,13.55
2019-03-28T10:05:27.460Z,16.07
2019-03-28T10:07:57.670Z,17.62
2019-03-28T10:10:27.904Z,16.75
2019-03-28T10:12:58.279Z,17.30
2019-03-28T10:15:28.484Z,16.60
2019-03-28T10:17:58.912Z,15.78
2019-03-28T10:20:29.108Z,13.18
2019-03-28T10:22:59.319Z,13.75
2019-03-28T10:25:29.535Z,14.33
2019-03-28T10:27:59.761Z,13.75
2019-03-28T10:30:40.494Z,12.73
2019-03-28T10:33:10.771Z,14.13
2019-03-28T10:35:41.792Z,15.28
2019-03-28T10:38:12.021Z,14.18
2019-03-28T10:40:42.218Z,14.55
2019-03-28T10:43:12.595Z,15.90
2019-03-28T10:45:42.855Z,15.45
2019-03-28T10:48:13.133Z,13.62
2019-03-28T10:50:45.808Z,14.45
2019-03-28T10:53:17.673Z,12.58
2019-03-28T10:55:49.432Z,14.00
2019-03-28T10:58:19.818Z,14.25
2019-03-28T11:00:50.369Z,14.93
2019-03-28T11:03:20.630Z,15.78
2019-03-28T11:05:51.003Z,14.23
2019-03-28T11:08:21.226Z,13.18
2019-03-28T11:10:52.241Z,14.23
2019-03-28T11:13:22.473Z,15.50
2019-03-28T11:15:52.921Z,13.90
2019-03-28T11:18:23.161Z,15.98
2019-03-28T11:20:53.361Z,14.33
2019-03-28T11:23:23.580Z,15.05
2019-03-28T11:25:57.146Z,17.62
2019-03-28T11:28:25.765Z,14.75
2019-03-28T11:30:56.009Z,18.25
2019-03-28T11:33:26.284Z,17.20
2019-03-28T11:35:56.472Z,20.62
2019-03-28T11:38:26.680Z,14.70
2019-03-28T11:40:56.923Z,14.55
2019-03-28T11:43:27.140Z,13.80
2019-03-28T11:45:57.402Z,13.38
2019-03-28T11:48:27.801Z,13.95
2019-03-28T11:50:59.555Z,17.05
2019-03-28T11:53:29.754Z,13.25
2019-03-28T11:56:00.028Z,15.45
2019-03-28T11:58:30.270Z,10.98
2019-03-28T12:01:00.651Z,13.10
2019-03-28T12:03:31.052Z,11.88
2019-03-28T12:06:01.277Z,8.75
2019-03-28T12:08:31.469Z,8.08
2019-03-28T12:11:01.676Z,8.48
2019-03-28T12:13:44.249Z,7.10
2019-03-28T12:16:03.986Z,9.68
2019-03-28T12:18:34.305Z,7.60
2019-03-28T12:21:04.534Z,8.15
2019-03-28T12:23:34.748Z,7.92
2019-03-28T12:26:04.983Z,7.35
2019-03-28T12:28:35.265Z,6.90
2019-03-28T12:31:06.397Z,7.70
2019-03-28T12:33:37.582Z,7.80
2019-03-28T12:36:07.955Z,8.70
2019-03-28T12:38:38.551Z,9.38
2019-03-28T12:41:10.438Z,12.33
2019-03-28T12:43:40.663Z,9.33
2019-03-28T12:46:10.841Z,9.28
2019-03-28T12:48:41.154Z,10.98
2019-03-28T12:51:11.467Z,9.30
2019-03-28T12:53:41.655Z,9.90
2019-03-28T12:56:12.462Z,10.28
2019-03-28T12:58:42.952Z,9.05
2019-03-28T13:01:13.189Z,9.53
2019-03-28T13:03:45.677Z,8.55
2019-03-28T13:06:15.298Z,8.48
2019-03-28T13:08:47.056Z,8.30
2019-03-28T13:11:17.482Z,8.20
2019-03-28T13:13:47.946Z,7.00
2019-03-28T13:16:18.538Z,6.83
2019-03-28T13:18:48.896Z,7.30
2019-03-28T13:21:20.700Z,8.50
2019-03-28T13:23:50.897Z,7.22
2019-03-28T13:26:21.193Z,7.20
2019-03-28T13:28:51.387Z,7.67
2019-03-28T13:31:21.576Z,7.45
2019-03-28T13:33:51.804Z,7.65
2019-03-28T13:36:21.991Z,7.03
2019-03-28T13:38:52.539Z,8.08
2019-03-28T13:41:25.160Z,7.75
2019-03-28T13:43:55.408Z,7.47
2019-03-28T13:46:25.617Z,7.35
2019-03-28T13:48:55.873Z,10.32
2019-03-28T13:51:26.149Z,6.83
2019-03-28T13:53:56.355Z,6.55
2019-03-28T13:56:26.619Z,6.42
2019-03-28T13:58:56.969Z,6.35
2019-03-28T14:01:27.165Z,5.75
2019-03-28T14:03:57.387Z,5.60
2019-03-28T14:06:27.584Z,5.80
2019-03-28T14:08:57.815Z,5.30
2019-03-28T14:11:28.027Z,6.20
2019-03-28T14:13:58.340Z,5.25
2019-03-28T14:16:28.804Z,5.83
2019-03-28T14:18:59.070Z,5.60
2019-03-28T14:21:29.357Z,5.70
2019-03-28T14:23:59.608Z,5.72
2019-03-28T14:29:07.880Z,5.20
2019-03-28T14:31:38.117Z,5.17
2019-03-28T14:34:08.488Z,5.45
2019-03-28T14:36:38.770Z,5.40
2019-03-28T14:39:08.972Z,6.50
2019-03-28T14:41:39.181Z,5.40
2019-03-28T14:44:09.410Z,5.00
2019-03-28T14:46:39.690Z,5.37
2019-03-28T14:49:10.017Z,6.00
2019-03-28T14:51:41.109Z,7.53
2019-03-28T14:54:13.457Z,5.30
2019-03-28T14:56:43.637Z,6.62
2019-03-28T14:59:15.406Z,6.67
2019-03-28T15:01:45.664Z,6.35
2019-03-28T15:04:15.896Z,6.50
2019-03-28T15:06:46.101Z,6.55
2019-03-28T15:09:16.319Z,6.67
2019-03-28T15:11:46.544Z,6.08
2019-03-28T15:14:16.825Z,7.62
2019-03-28T15:16:47.036Z,7.17
2019-03-28T15:19:17.292Z,6.28
2019-03-28T15:21:47.688Z,6.80
2019-03-28T15:24:17.921Z,6.87
2019-03-28T15:26:48.169Z,7.22
2019-03-28T15:29:18.548Z,6.78
2019-03-28T15:31:51.136Z,7.45
2019-03-28T15:34:21.525Z,7.92
2019-03-28T15:36:51.787Z,7.47
2019-03-28T15:39:22.024Z,8.83
2019-03-28T15:41:52.265Z,7.45
2019-03-28T15:44:22.517Z,6.70
2019-03-28T15:46:52.725Z,7.35
2019-03-28T15:49:24.594Z,7.03
2019-03-28T15:51:54.835Z,7.17
2019-03-28T15:54:30.801Z,6.53
2019-03-28T16:04:36.850Z,6.20
2019-03-28T16:07:08.015Z,7.22
2019-03-28T16:09:38.475Z,6.62
2019-03-28T16:12:08.680Z,6.85
2019-03-28T16:14:38.975Z,6.55
2019-03-28T16:17:09.219Z,7.03
2019-03-28T16:19:39.439Z,6.78
2019-03-28T16:22:09.716Z,7.08
2019-03-28T16:24:40.014Z,6.28
2019-03-28T16:27:11.874Z,6.87
2019-03-28T16:29:54.486Z,7.03
2019-03-28T16:32:24.916Z,9.35
2019-03-28T16:38:47.719Z,6.90
2019-03-28T16:43:54.907Z,7.08
2019-03-28T16:46:25.093Z,6.83
2019-03-28T16:48:56.580Z,7.22
2019-03-28T16:51:27.047Z,7.40
2019-03-28T16:54:00.319Z,7.15
2019-03-28T16:56:30.570Z,8.10
2019-03-28T16:59:00.803Z,7.55
2019-03-28T17:01:32.616Z,7.42
2019-03-28T17:04:02.813Z,7.72
2019-03-28T17:06:33.746Z,7.78
2019-03-28T17:09:04.767Z,7.12
2019-03-28T17:11:34.948Z,7.47
2019-03-28T17:14:06.740Z,7.67
2019-03-28T17:16:36.936Z,7.80
2019-03-28T17:19:07.220Z,8.68
2019-03-28T17:21:37.520Z,8.53
2019-03-28T17:24:07.784Z,8.95
2019-03-28T17:26:37.987Z,8.48
2019-03-28T17:29:08.202Z,8.65
2019-03-28T17:31:38.407Z,8.23
2019-03-28T17:34:08.650Z,8.75
2019-03-28T17:36:41.435Z,8.33
2019-03-28T17:39:11.627Z,8.75
2019-03-28T17:41:41.916Z,8.55
2019-03-28T17:44:14.424Z,8.70
2019-03-28T17:46:44.839Z,9.28
2019-03-28T17:49:15.387Z,9.20
2019-03-28T17:51:45.606Z,8.80
2019-03-28T17:54:15.838Z,8.80
2019-03-28T17:56:46.212Z,9.40
2019-03-28T17:59:16.445Z,10.10
2019-03-28T18:01:47.020Z,9.13
2019-03-28T18:04:22.725Z,8.35
2019-03-28T18:06:49.371Z,9.53
2019-03-28T18:09:20.203Z,8.85
2019-03-28T18:11:51.472Z,10.35
2019-03-28T18:14:21.815Z,10.45
2019-03-28T18:16:52.127Z,9.48
2019-03-28T18:19:22.410Z,9.63
2019-03-28T18:22:02.742Z,10.32
2019-03-28T18:24:24.666Z,10.13
2019-03-28T18:26:54.852Z,9.73
2019-03-28T18:29:25.122Z,9.18
2019-03-28T18:31:55.438Z,9.83
2019-03-28T18:34:27.364Z,9.43
2019-03-28T18:36:58.434Z,9.40
2019-03-28T18:39:28.991Z,10.23
2019-03-28T18:41:59.488Z,9.50
2019-03-28T18:44:29.777Z,10.28
2019-03-28T18:47:00.038Z,10.88
2019-03-28T18:49:30.963Z,11.83
2019-03-28T18:52:01.467Z,10.80
2019-03-28T18:54:31.873Z,11.50
2019-03-28T18:57:03.360Z,12.13
2019-03-28T18:59:33.865Z,12.18
2019-03-28T19:02:04.116Z,12.60
2019-03-28T19:04:35.917Z,12.05
2019-03-28T19:07:06.418Z,12.33
2019-03-28T19:09:39.071Z,11.40
2019-03-28T19:12:09.434Z,11.33
2019-03-28T19:14:39.616Z,11.65
2019-03-28T19:17:09.857Z,12.85
2019-03-28T19:19:41.788Z,12.43
2019-03-28T19:22:12.276Z,13.45
2019-03-28T19:24:42.774Z,12.35
2019-03-28T19:27:14.806Z,13.08
2019-03-28T19:29:45.310Z,11.85
2019-03-28T19:32:15.568Z,13.22
2019-03-28T19:34:45.791Z,12.15
2019-03-28T19:37:19.181Z,11.93
2019-03-28T19:39:49.604Z,11.60
2019-03-28T19:42:22.479Z,10.43
2019-03-28T19:44:51.900Z,10.18
2019-03-28T19:47:22.187Z,10.55
2019-03-28T19:49:52.414Z,10.38
2019-03-28T19:52:23.564Z,11.15
2019-03-28T19:54:55.322Z,12.10
2019-03-28T19:57:25.616Z,11.97
2019-03-28T19:59:58.623Z,12.63
2019-03-28T20:02:28.805Z,12.35
2019-03-28T20:04:59.066Z,10.95
2019-03-28T20:07:29.356Z,12.13
2019-03-28T20:09:59.621Z,11.73
2019-03-28T20:12:29.868Z,11.63
2019-03-28T20:15:00.519Z,10.55
2019-03-28T20:17:31.004Z,10.03
2019-03-28T20:20:01.259Z,10.58
2019-03-28T20:22:31.513Z,9.98
2019-03-28T20:25:01.732Z,9.38
2019-03-28T20:27:31.981Z,8.40
2019-03-28T20:30:02.263Z,9.28
2019-03-28T20:32:32.502Z,8.28
2019-03-28T20:35:04.580Z,8.63
2019-03-28T20:37:34.969Z,8.38
2019-03-28T20:40:07.125Z,7.15
2019-03-28T20:42:37.499Z,8.35
2019-03-28T20:45:07.808Z,7.87
2019-03-28T20:47:37.984Z,7.50
2019-03-28T20:50:08.201Z,8.45
2019-03-28T20:52:38.400Z,7.90
2019-03-28T20:55:08.599Z,8.00
2019-03-28T20:57:40.431Z,8.58
2019-03-28T21:00:10.973Z,8.70
2019-03-28T21:02:41.163Z,8.65
2019-03-28T21:05:14.239Z,8.95
2019-03-28T21:07:43.341Z,8.65
2019-03-28T21:10:16.657Z,8.28
2019-03-28T21:12:46.983Z,8.83
2019-03-28T21:15:17.280Z,10.00
2019-03-28T21:17:47.569Z,9.25
2019-03-28T21:20:17.766Z,9.73
2019-03-28T21:22:48.012Z,9.75
2019-03-28T21:25:18.209Z,8.98
2019-03-28T21:27:48.404Z,8.30
2019-03-28T21:30:20.308Z,9.00
2019-03-28T21:32:55.633Z,9.88
2019-03-28T21:35:22.718Z,9.33
2019-03-28T21:37:52.901Z,9.20
2019-03-28T21:40:23.092Z,9.63
2019-03-28T21:42:53.443Z,9.13
2019-03-28T21:45:23.635Z,9.98
2019-03-28T21:47:53.843Z,9.08
2019-03-28T21:50:24.078Z,9.38
2019-03-28T21:52:54.340Z,10.00
2019-03-28T21:55:24.620Z,10.43
2019-03-28T21:57:54.841Z,9.48
2019-03-28T22:00:25.957Z,10.60
2019-03-28T22:02:56.159Z,10.68
2019-03-28T22:05:28.856Z,9.38
2019-03-28T22:07:58.416Z,10.13
2019-03-28T22:10:28.702Z,9.55
2019-03-28T22:13:00.535Z,9.43
2019-03-28T22:15:31.692Z,9.75
2019-03-28T22:18:02.108Z,9.50
2019-03-28T22:20:32.324Z,9.65
2019-03-28T22:23:02.528Z,9.75
2019-03-28T22:25:32.785Z,9.80
2019-03-28T22:28:03.106Z,9.55
2019-03-28T22:30:33.411Z,9.93
2019-03-28T22:33:03.709Z,10.78
2019-03-28T22:35:33.986Z,10.60
2019-03-28T22:38:04.177Z,9.95
2019-03-28T22:40:34.604Z,10.25
2019-03-28T22:43:04.875Z,9.88
2019-03-28T22:45:35.189Z,10.13
2019-03-28T22:48:11.077Z,10.65
2019-03-28T22:50:37.326Z,9.75
2019-03-28T22:53:07.572Z,9.98
2019-03-28T22:55:37.817Z,10.38
2019-03-28T22:58:08.395Z,10.15
2019-03-28T23:00:40.292Z,10.60
2019-03-28T23:03:10.491Z,15.32
2019-03-28T23:05:40.714Z,20.32
2019-03-28T23:08:11.244Z,19.90
2019-03-28T23:10:41.431Z,19.52
2019-03-28T23:13:11.643Z,23.10
2019-03-28T23:15:41.848Z,21.33
2019-03-28T23:18:12.859Z,21.33
2019-03-28T23:20:43.970Z,21.65
2019-03-28T23:23:14.282Z,22.48
2019-03-28T23:25:44.667Z,24.23
2019-03-28T23:28:14.931Z,23.52
2019-03-28T23:30:45.299Z,23.98
2019-03-28T23:33:15.590Z,24.00
2019-03-28T23:35:45.895Z,23.87
2019-03-28T23:38:16.156Z,26.90
2019-03-28T23:40:46.362Z,24.47
2019-03-28T23:43:16.626Z,25.02
2019-03-28T23:45:46.862Z,25.77
2019-03-28T23:48:17.159Z,23.87
2019-03-28T23:50:48.907Z,25.37
2019-03-28T23:53:19.116Z,25.52
2019-03-28T23:55:49.348Z,24.92
2019-03-28T23:58:20.928Z,25.08
